createdAt,value
2022-10-23T00:00:07.931Z,9.73
2022-10-23T00:02:42.199Z,10.63
2022-10-23T00:05:16.144Z,10.13
2022-10-23T00:07:53.234Z,10.13
2022-10-23T00:10:28.830Z,11.52
2022-10-23T00:13:03.856Z,11.98
2022-10-23T00:15:38.494Z,10.00
2022-10-23T00:18:12.175Z,10.20
2022-10-23T00:20:45.904Z,11.93
2022-10-23T00:23:19.435Z,11.50
2022-10-23T00:25:53.375Z,11.27
2022-10-23T00:28:28.337Z,10.25
2022-10-23T00:31:03.266Z,11.63
2022-10-23T00:33:37.449Z,12.90
2022-10-23T00:36:14.122Z,14.10
2022-10-23T00:38:47.985Z,13.40
2022-10-23T00:41:23.889Z,10.05
2022-10-23T00:44:06.640Z,13.50
2022-10-23T00:46:40.835Z,16.05
2022-10-23T00:49:15.734Z,14.05
2022-10-23T00:51:53.790Z,11.20
2022-10-23T00:54:30.527Z,11.40
2022-10-23T00:57:08.221Z,12.02
2022-10-23T00:59:43.105Z,12.68
2022-10-23T01:02:17.195Z,10.55
2022-10-23T01:04:50.850Z,11.73
2022-10-23T01:07:30.413Z,11.40
2022-10-23T01:10:10.176Z,11.48
2022-10-23T01:12:51.506Z,12.02
2022-10-23T01:15:32.364Z,11.88
2022-10-23T01:18:12.847Z,14.40
2022-10-23T01:20:51.659Z,12.13
2022-10-23T01:23:47.626Z,11.02
2022-10-23T01:26:33.268Z,11.77
2022-10-23T01:29:16.778Z,10.13
2022-10-23T01:31:54.967Z,10.77
2022-10-23T01:34:33.450Z,11.57
2022-10-23T01:37:13.231Z,11.23
2022-10-23T01:39:53.483Z,12.63
2022-10-23T01:42:31.832Z,11.25
2022-10-23T01:45:12.062Z,11.55
2022-10-23T01:47:46.151Z,11.45
2022-10-23T01:50:22.932Z,11.98
2022-10-23T01:52:56.725Z,12.27
2022-10-23T01:55:32.556Z,11.90
2022-10-23T01:58:08.556Z,12.95
2022-10-23T02:00:46.415Z,12.88
2022-10-23T02:03:21.463Z,12.50
2022-10-23T02:05:55.176Z,11.95
2022-10-23T02:08:28.945Z,12.48
2022-10-23T02:11:09.191Z,12.88
2022-10-23T02:13:47.689Z,12.23
2022-10-23T02:16:30.153Z,12.90
2022-10-23T02:19:14.039Z,12.45
2022-10-23T02:21:53.946Z,12.50
2022-10-23T02:24:34.420Z,12.02
2022-10-23T02:27:14.064Z,12.80
2022-10-23T02:29:51.187Z,12.32
2022-10-23T02:32:29.079Z,12.18
2022-10-23T02:35:02.940Z,13.25
2022-10-23T02:37:36.801Z,12.57
2022-10-23T02:40:12.164Z,11.98
2022-10-23T02:42:51.962Z,12.05
2022-10-23T02:45:32.852Z,12.35
2022-10-23T02:48:15.529Z,12.77
2022-10-23T02:50:55.419Z,13.25
2022-10-23T02:53:38.181Z,13.45
2022-10-23T02:56:18.808Z,12.95
2022-10-23T02:59:00.764Z,12.55
2022-10-23T03:01:42.151Z,13.18
2022-10-23T03:04:20.320Z,12.30
2022-10-23T03:06:54.020Z,13.20
2022-10-23T03:09:28.113Z,13.43
2022-10-23T03:12:01.602Z,13.23
2022-10-23T03:14:35.348Z,13.32
2022-10-23T03:17:08.801Z,13.07
2022-10-23T03:19:43.918Z,12.80
2022-10-23T03:22:17.666Z,12.60
2022-10-23T03:24:51.369Z,13.13
2022-10-23T03:27:24.887Z,13.15
2022-10-23T03:29:58.712Z,13.15
2022-10-23T03:32:32.207Z,12.95
2022-10-23T03:35:08.300Z,12.63
2022-10-23T03:37:41.969Z,12.13
2022-10-23T03:40:15.917Z,12.52
2022-10-23T03:42:49.429Z,11.52
2022-10-23T03:45:23.112Z,12.40
2022-10-23T03:47:56.542Z,12.43
2022-10-23T03:50:31.568Z,11.88
2022-10-23T03:53:05.092Z,11.55
2022-10-23T03:55:38.795Z,11.48
2022-10-23T03:58:12.499Z,12.18
2022-10-23T04:00:46.264Z,11.52
2022-10-23T04:03:19.761Z,11.27
2022-10-23T04:05:54.813Z,10.73
2022-10-23T04:08:28.406Z,11.10
2022-10-23T04:11:02.235Z,11.20
2022-10-23T04:13:35.771Z,10.85
2022-10-23T04:16:09.508Z,10.70
2022-10-23T04:18:43.107Z,10.70
2022-10-23T04:21:18.363Z,10.48
2022-10-23T04:23:51.823Z,10.93
2022-10-23T04:26:25.621Z,9.40
2022-10-23T04:28:59.085Z,9.57
2022-10-23T04:31:32.763Z,9.05
2022-10-23T04:36:46.431Z,9.05
2022-10-23T04:39:20.128Z,9.15
2022-10-23T04:41:53.749Z,8.95
2022-10-23T04:44:27.331Z,9.30
2022-10-23T04:47:01.037Z,8.98
2022-10-23T04:49:34.636Z,8.98
2022-10-23T04:52:09.781Z,9.48
2022-10-23T04:54:43.291Z,9.25
2022-10-23T04:57:17.006Z,9.98
2022-10-23T04:59:50.538Z,8.75
2022-10-23T05:02:24.462Z,8.73
2022-10-23T05:04:58.024Z,8.57
2022-10-23T05:07:33.074Z,8.60
2022-10-23T05:10:07.625Z,9.18
2022-10-23T05:12:41.436Z,9.68
2022-10-23T05:15:14.883Z,8.60
2022-10-23T05:17:53.854Z,8.93
2022-10-23T05:20:32.044Z,8.50
2022-10-23T05:23:10.435Z,9.65
2022-10-23T05:25:43.874Z,9.38
2022-10-23T05:28:17.567Z,10.00
2022-10-23T05:30:51.380Z,8.73
2022-10-23T05:33:25.152Z,9.35
2022-10-23T05:35:59.763Z,8.93
2022-10-23T05:38:36.672Z,9.90
2022-10-23T05:41:10.352Z,9.70
2022-10-23T05:43:44.080Z,10.00
2022-10-23T05:46:17.548Z,9.68
2022-10-23T05:48:52.239Z,9.85
2022-10-23T05:51:25.809Z,9.55
2022-10-23T05:54:00.801Z,9.90
2022-10-23T05:56:34.727Z,10.52
2022-10-23T05:59:09.044Z,10.48
2022-10-23T06:01:42.842Z,10.18
2022-10-23T06:04:16.584Z,10.65
2022-10-23T06:06:50.216Z,10.68
2022-10-23T06:09:25.373Z,10.80
2022-10-23T06:11:58.924Z,10.60
2022-10-23T06:14:32.685Z,10.30
2022-10-23T06:17:06.466Z,10.00
2022-10-23T06:19:40.300Z,9.68
2022-10-23T06:22:14.070Z,9.07
2022-10-23T06:24:49.196Z,9.10
2022-10-23T06:27:22.796Z,9.02
2022-10-23T06:29:56.514Z,9.75
2022-10-23T06:32:32.696Z,9.07
2022-10-23T06:35:07.420Z,9.00
2022-10-23T06:37:41.172Z,9.00
2022-10-23T06:40:16.352Z,8.63
2022-10-23T06:42:49.810Z,9.68
2022-10-23T06:45:23.547Z,8.70
2022-10-23T06:47:57.059Z,8.40
2022-10-23T06:50:32.037Z,7.75
2022-10-23T06:53:06.109Z,7.70
2022-10-23T06:55:41.233Z,8.30
2022-10-23T06:58:14.903Z,8.30
2022-10-23T07:00:48.609Z,7.30
2022-10-23T07:03:22.207Z,7.18
2022-10-23T07:05:56.844Z,7.47
2022-10-23T07:08:31.013Z,7.82
2022-10-23T07:11:08.264Z,7.38
2022-10-23T07:13:42.580Z,7.90
2022-10-23T07:16:18.902Z,7.63
2022-10-23T07:18:59.304Z,7.55
2022-10-23T07:21:34.885Z,7.25
2022-10-23T07:24:10.184Z,7.13
2022-10-23T07:26:45.289Z,7.47
2022-10-23T07:29:18.808Z,6.88
2022-10-23T07:31:52.467Z,6.93
2022-10-23T07:34:25.999Z,6.90
2022-10-23T07:36:59.921Z,6.57
2022-10-23T07:39:33.375Z,7.25
2022-10-23T07:42:10.495Z,6.18
2022-10-23T07:44:44.382Z,8.02
2022-10-23T07:47:18.168Z,7.13
2022-10-23T07:49:52.629Z,6.15
2022-10-23T07:52:26.506Z,8.50
2022-10-23T07:55:00.389Z,6.72
2022-10-23T07:57:35.436Z,6.60
2022-10-23T08:00:11.071Z,6.05
2022-10-23T08:02:44.934Z,6.15
2022-10-23T08:05:21.458Z,6.38
2022-10-23T08:07:55.360Z,5.70
2022-10-23T08:10:28.937Z,5.75
2022-10-23T08:13:04.059Z,7.68
2022-10-23T08:15:37.992Z,5.88
2022-10-23T08:18:11.876Z,5.65
2022-10-23T08:20:47.793Z,5.82
2022-10-23T08:23:21.691Z,6.32
2022-10-23T08:26:00.212Z,4.85
2022-10-23T08:28:35.513Z,5.30
2022-10-23T08:31:10.669Z,4.38
2022-10-23T08:33:44.593Z,4.68
2022-10-23T08:36:21.261Z,3.92
2022-10-23T08:38:57.020Z,4.47
2022-10-23T08:41:35.622Z,4.03
2022-10-23T08:44:20.743Z,3.97
2022-10-23T08:47:01.953Z,4.15
2022-10-23T08:49:46.086Z,3.58
2022-10-23T08:52:30.010Z,4.13
2022-10-23T08:55:16.455Z,3.30
2022-10-23T08:57:56.298Z,4.20
2022-10-23T09:00:32.003Z,4.47
2022-10-23T09:03:06.595Z,4.63
2022-10-23T09:06:01.739Z,3.78
2022-10-23T09:08:45.259Z,4.00
2022-10-23T09:11:28.863Z,3.30
2022-10-23T09:14:27.930Z,3.80
2022-10-23T09:17:18.660Z,3.33
2022-10-23T09:20:02.967Z,3.47
2022-10-23T09:22:36.722Z,3.17
2022-10-23T09:25:12.338Z,3.25
2022-10-23T09:27:50.638Z,3.20
2022-10-23T09:30:33.053Z,3.17
2022-10-23T09:33:19.553Z,3.20
2022-10-23T09:35:56.479Z,3.13
2022-10-23T09:38:35.093Z,3.13
2022-10-23T09:41:15.139Z,3.60
2022-10-23T09:44:00.348Z,3.40
2022-10-23T09:46:41.161Z,3.47
2022-10-23T09:49:21.987Z,3.50
2022-10-23T09:52:01.812Z,3.40
2022-10-23T09:54:39.040Z,3.25
2022-10-23T09:57:23.868Z,3.20
2022-10-23T10:00:00.082Z,3.20
2022-10-23T10:02:35.800Z,3.22
2022-10-23T10:05:24.099Z,3.65
2022-10-23T10:08:06.722Z,3.70
2022-10-23T10:10:46.134Z,4.07
2022-10-23T10:13:37.535Z,3.42
2022-10-23T10:16:15.325Z,3.53
2022-10-23T10:18:56.413Z,3.60
2022-10-23T10:21:37.978Z,2.90
2022-10-23T10:24:18.312Z,3.30
2022-10-23T10:26:59.298Z,3.35
2022-10-23T10:29:51.391Z,3.72
2022-10-23T10:32:36.718Z,3.45
2022-10-23T10:35:26.565Z,3.53
2022-10-23T10:38:32.378Z,3.90
2022-10-23T10:41:26.204Z,2.90
2022-10-23T10:44:16.992Z,3.45
2022-10-23T10:46:57.632Z,3.22
2022-10-23T10:49:37.511Z,3.42
2022-10-23T10:52:18.071Z,3.40
2022-10-23T10:55:03.545Z,3.58
2022-10-23T10:57:41.172Z,4.32
2022-10-23T11:00:17.945Z,4.72
2022-10-23T11:02:56.272Z,3.83
2022-10-23T11:05:33.317Z,3.38
2022-10-23T11:08:12.003Z,3.40
2022-10-23T11:10:51.322Z,3.17
2022-10-23T11:13:28.434Z,3.72
2022-10-23T11:16:06.781Z,3.30
2022-10-23T11:18:43.779Z,3.58
2022-10-23T11:21:27.747Z,3.10
2022-10-23T11:24:53.451Z,3.55
2022-10-23T11:28:03.312Z,3.35
2022-10-23T11:30:47.627Z,3.25
2022-10-23T11:34:10.043Z,3.35
2022-10-23T11:36:46.953Z,2.92
2022-10-23T11:39:23.563Z,3.40
2022-10-23T11:41:58.991Z,3.50
2022-10-23T11:44:46.185Z,3.25
2022-10-23T11:47:41.608Z,2.92
2022-10-23T11:50:24.724Z,3.67
2022-10-23T11:53:14.995Z,2.90
2022-10-23T11:56:01.410Z,2.65
2022-10-23T11:58:44.530Z,3.40
2022-10-23T12:01:31.438Z,2.50
2022-10-23T12:04:17.620Z,2.70
2022-10-23T12:06:53.955Z,3.05
2022-10-23T12:09:42.354Z,3.38
2022-10-23T12:12:28.163Z,2.60
2022-10-23T12:15:21.203Z,2.95
2022-10-23T12:18:08.775Z,2.83
2022-10-23T12:20:49.402Z,2.90
2022-10-23T12:23:48.073Z,2.65
2022-10-23T12:26:43.456Z,2.97
2022-10-23T12:29:27.716Z,2.95
2022-10-23T12:32:14.944Z,2.95
2022-10-23T12:35:14.285Z,2.97
2022-10-23T12:38:10.725Z,2.80
2022-10-23T12:40:46.191Z,2.50
2022-10-23T12:43:26.967Z,2.45
2022-10-23T12:46:05.945Z,2.55
2022-10-23T12:48:49.116Z,3.03
2022-10-23T12:51:27.422Z,2.47
2022-10-23T12:54:01.436Z,2.00
2022-10-23T12:56:38.933Z,2.97
2022-10-23T12:59:18.472Z,2.70
2022-10-23T13:01:53.084Z,2.50
2022-10-23T13:04:30.495Z,2.55
2022-10-23T13:07:05.714Z,3.22
2022-10-23T13:09:42.078Z,2.65
2022-10-23T13:12:22.384Z,2.35
2022-10-23T13:14:59.041Z,2.35
2022-10-23T13:17:38.853Z,2.50
2022-10-23T13:20:22.128Z,2.47
2022-10-23T13:23:02.194Z,2.40
2022-10-23T13:25:38.443Z,2.35
2022-10-23T13:28:24.900Z,2.50
2022-10-23T13:31:24.071Z,2.38
2022-10-23T13:34:17.579Z,2.17
2022-10-23T13:37:00.592Z,3.13
2022-10-23T13:39:35.773Z,2.65
2022-10-23T13:42:15.223Z,2.67
2022-10-23T13:44:49.282Z,2.15
2022-10-23T13:47:23.304Z,2.42
2022-10-23T13:49:57.027Z,2.28
2022-10-23T13:52:30.650Z,2.20
2022-10-23T13:55:19.346Z,2.60
2022-10-23T13:57:52.923Z,2.55
2022-10-23T14:00:26.591Z,2.45
2022-10-23T14:03:00.224Z,2.55
2022-10-23T14:05:34.119Z,2.60
2022-10-23T14:08:07.874Z,2.33
2022-10-23T14:10:43.029Z,2.50
2022-10-23T14:13:17.088Z,2.55
2022-10-23T14:15:54.383Z,2.00
2022-10-23T14:18:27.945Z,2.78
2022-10-23T14:21:02.143Z,2.53
2022-10-23T14:23:36.209Z,3.10
2022-10-23T14:26:13.291Z,2.20
2022-10-23T14:28:46.828Z,2.58
2022-10-23T14:31:20.923Z,2.55
2022-10-23T14:33:56.893Z,2.60
2022-10-23T14:36:38.685Z,2.60
2022-10-23T14:39:24.220Z,3.00
2022-10-23T14:41:59.372Z,2.47
2022-10-23T14:44:33.887Z,2.75
2022-10-23T14:47:07.834Z,3.30
2022-10-23T14:49:42.461Z,2.40
2022-10-23T14:52:16.256Z,2.72
2022-10-23T14:54:51.557Z,3.60
2022-10-23T14:57:26.751Z,2.33
2022-10-23T15:00:00.245Z,2.67
2022-10-23T15:02:34.181Z,2.10
2022-10-23T15:05:08.299Z,2.97
2022-10-23T15:07:42.169Z,3.00
2022-10-23T15:15:29.735Z,2.80
2022-10-23T15:18:03.451Z,2.75
2022-10-23T15:20:37.132Z,2.88
2022-10-23T15:23:10.928Z,3.03
2022-10-23T15:25:44.530Z,3.35
2022-10-23T15:28:19.780Z,2.95
2022-10-23T15:30:53.910Z,2.30
2022-10-23T15:33:28.567Z,2.90
2022-10-23T15:36:02.165Z,2.70
2022-10-23T15:38:36.020Z,2.97
2022-10-23T15:41:17.009Z,2.67
2022-10-23T15:43:56.043Z,3.42
2022-10-23T15:46:29.783Z,2.80
2022-10-23T15:49:03.827Z,2.95
2022-10-23T15:51:38.167Z,2.67
2022-10-23T15:54:16.607Z,3.60
2022-10-23T15:56:52.470Z,3.22
2022-10-23T15:59:27.915Z,3.15
2022-10-23T16:02:01.776Z,3.22
2022-10-23T16:04:36.339Z,3.58
2022-10-23T16:07:10.059Z,2.80
2022-10-23T16:09:43.949Z,3.03
2022-10-23T16:12:18.331Z,3.90
2022-10-23T16:14:53.494Z,3.40
2022-10-23T16:17:26.946Z,3.10
2022-10-23T16:20:00.784Z,3.33
2022-10-23T16:22:34.899Z,3.80
2022-10-23T16:25:09.283Z,3.55
2022-10-23T16:27:43.170Z,3.00
2022-10-23T16:30:18.774Z,3.65
2022-10-23T16:32:52.599Z,3.78
2022-10-23T16:35:26.344Z,3.70
2022-10-23T16:37:59.929Z,3.80
2022-10-23T16:40:33.939Z,4.30
2022-10-23T16:43:07.453Z,3.33
2022-10-23T16:45:42.633Z,3.40
2022-10-23T16:48:16.189Z,3.55
2022-10-23T16:50:49.883Z,3.35
2022-10-23T16:53:26.688Z,2.90
2022-10-23T16:56:00.454Z,3.60
2022-10-23T16:58:34.570Z,3.22
2022-10-23T17:01:12.058Z,3.40
2022-10-23T17:03:50.520Z,3.17
2022-10-23T17:06:26.406Z,3.80
2022-10-23T17:09:01.416Z,2.78
2022-10-23T17:11:38.124Z,3.55
2022-10-23T17:14:16.002Z,3.17
2022-10-23T17:16:52.905Z,3.37
2022-10-23T17:19:45.521Z,3.42
2022-10-23T17:22:19.948Z,3.50
2022-10-23T17:24:54.221Z,3.33
2022-10-23T17:27:28.391Z,3.75
2022-10-23T17:30:01.965Z,4.20
2022-10-23T17:32:37.662Z,4.05
2022-10-23T17:35:11.659Z,4.45
2022-10-23T17:37:45.576Z,3.78
2022-10-23T17:40:22.748Z,3.72
2022-10-23T17:42:58.847Z,3.63
2022-10-23T17:45:35.722Z,3.83
2022-10-23T17:48:10.886Z,3.60
2022-10-23T17:50:44.687Z,3.65
2022-10-23T17:53:18.744Z,3.10
2022-10-23T17:55:52.521Z,3.45
2022-10-23T17:58:26.290Z,3.67
2022-10-23T18:01:05.595Z,3.03
2022-10-23T18:03:41.395Z,3.03
2022-10-23T18:06:17.752Z,2.90
2022-10-23T18:08:51.733Z,3.25
2022-10-23T18:11:27.378Z,3.65
2022-10-23T18:14:02.129Z,6.68
2022-10-23T18:16:40.417Z,3.10
2022-10-23T18:19:18.014Z,2.72
2022-10-23T18:21:51.773Z,2.72
2022-10-23T18:24:26.462Z,2.65
2022-10-23T18:26:59.902Z,2.95
2022-10-23T18:29:33.657Z,3.25
2022-10-23T18:32:07.319Z,2.85
2022-10-23T18:34:42.483Z,4.43
2022-10-23T18:37:16.140Z,6.28
2022-10-23T18:39:49.958Z,3.13
2022-10-23T18:42:23.520Z,2.92
2022-10-23T18:44:57.326Z,3.10
2022-10-23T18:47:31.332Z,2.65
2022-10-23T18:50:07.539Z,2.72
2022-10-23T18:52:41.203Z,3.00
2022-10-23T18:55:15.404Z,3.13
2022-10-23T18:57:49.136Z,3.15
2022-10-23T19:00:22.928Z,3.17
2022-10-23T19:02:56.613Z,2.67
2022-10-23T19:05:32.114Z,3.22
2022-10-23T19:08:06.163Z,2.80
2022-10-23T19:10:41.668Z,3.58
2022-10-23T19:13:16.950Z,3.20
2022-10-23T19:15:50.685Z,3.33
2022-10-23T19:18:24.211Z,3.00
2022-10-23T19:21:01.435Z,3.05
2022-10-23T19:23:38.202Z,2.67
2022-10-23T19:26:14.080Z,3.30
2022-10-23T19:28:49.185Z,3.30
2022-10-23T19:31:23.428Z,3.50
2022-10-23T19:33:57.000Z,2.78
2022-10-23T19:36:32.889Z,3.10
2022-10-23T19:39:06.628Z,3.13
2022-10-23T19:41:40.424Z,2.80
2022-10-23T19:44:14.554Z,3.22
2022-10-23T19:46:48.661Z,3.00
2022-10-23T19:49:23.811Z,3.15
2022-10-23T19:51:58.995Z,3.97
2022-10-23T19:54:33.127Z,4.20
2022-10-23T19:57:07.175Z,5.28
2022-10-23T19:59:40.891Z,5.85
2022-10-23T20:02:14.737Z,7.07
2022-10-23T20:04:48.663Z,7.10
2022-10-23T20:07:23.780Z,7.78
2022-10-23T20:09:57.300Z,7.70
2022-10-23T20:12:31.046Z,7.32
2022-10-23T20:15:05.066Z,7.25
2022-10-23T20:17:39.043Z,8.00
2022-10-23T20:20:12.669Z,8.05
2022-10-23T20:22:49.978Z,8.27
2022-10-23T20:25:25.589Z,8.10
2022-10-23T20:27:59.316Z,7.88
2022-10-23T20:30:33.211Z,7.18
2022-10-23T20:33:07.093Z,6.28
2022-10-23T20:35:41.218Z,7.93
2022-10-23T20:38:16.383Z,7.20
2022-10-23T20:40:50.025Z,7.15
2022-10-23T20:43:23.828Z,8.27
2022-10-23T20:45:59.387Z,8.38
2022-10-23T20:48:36.251Z,7.40
2022-10-23T20:51:12.578Z,5.47
2022-10-23T20:53:48.236Z,5.05
2022-10-23T20:56:29.963Z,3.70
2022-10-23T20:59:05.968Z,3.67
2022-10-23T21:01:41.565Z,4.40
2022-10-23T21:04:15.374Z,4.53
2022-10-23T21:07:08.914Z,3.80
2022-10-23T21:09:44.888Z,4.57
2022-10-23T21:12:18.441Z,3.60
2022-10-23T21:14:53.955Z,3.70
2022-10-23T21:17:28.434Z,3.80
2022-10-23T21:20:02.316Z,3.50
2022-10-23T21:22:36.286Z,3.08
2022-10-23T21:25:11.804Z,2.92
2022-10-23T21:27:46.570Z,3.10
2022-10-23T21:30:20.441Z,2.88
2022-10-23T21:32:53.964Z,2.72
2022-10-23T21:35:30.036Z,2.53
2022-10-23T21:38:03.763Z,2.83
2022-10-23T21:40:38.941Z,2.72
2022-10-23T21:43:12.510Z,2.60
2022-10-23T21:45:46.220Z,2.38
2022-10-23T21:48:19.638Z,2.40
2022-10-23T21:50:58.153Z,1.85
2022-10-23T21:53:32.022Z,1.70
2022-10-23T21:56:07.762Z,1.60
2022-10-23T21:58:41.454Z,1.77
2022-10-23T22:01:15.232Z,1.38
2022-10-23T22:03:49.878Z,1.60
2022-10-23T22:06:25.280Z,1.02
2022-10-23T22:09:01.091Z,1.10
2022-10-23T22:11:36.432Z,0.98
2022-10-23T22:14:10.005Z,1.00
2022-10-23T22:16:43.832Z,1.00
2022-10-23T22:19:18.781Z,1.23
2022-10-23T22:21:52.709Z,0.75
2022-10-23T22:24:26.385Z,1.60
2022-10-23T22:27:01.530Z,1.92
2022-10-23T22:29:35.205Z,1.25
2022-10-23T22:32:09.102Z,0.90
2022-10-23T22:34:52.232Z,1.20
2022-10-23T22:37:26.659Z,1.40
2022-10-23T22:40:01.110Z,1.00
2022-10-23T22:42:44.594Z,1.70
2022-10-23T22:45:18.984Z,1.00
2022-10-23T22:47:52.907Z,1.00
2022-10-23T22:50:26.459Z,1.15
2022-10-23T22:53:02.820Z,1.10
2022-10-23T22:55:36.650Z,1.23
2022-10-23T22:58:11.979Z,1.17
2022-10-23T23:00:45.894Z,0.90
2022-10-23T23:03:19.686Z,1.20
2022-10-23T23:05:53.323Z,1.08
2022-10-23T23:08:27.498Z,1.50
2022-10-23T23:11:01.341Z,1.10
2022-10-23T23:13:36.617Z,1.30
2022-10-23T23:16:18.828Z,1.45
2022-10-23T23:18:52.883Z,1.77
2022-10-23T23:21:26.862Z,1.70
2022-10-23T23:24:02.828Z,1.70
2022-10-23T23:26:36.398Z,2.17
2022-10-23T23:29:13.590Z,2.00
2022-10-23T23:31:47.183Z,2.00
2022-10-23T23:34:21.047Z,3.17
2022-10-23T23:36:54.825Z,1.77
2022-10-23T23:39:31.384Z,2.30
2022-10-23T23:42:05.188Z,2.35
2022-10-23T23:44:50.202Z,2.35
2022-10-23T23:47:42.484Z,2.40
2022-10-23T23:50:16.743Z,2.95
2022-10-23T23:52:50.295Z,2.38
2022-10-23T23:55:24.008Z,2.53
2022-10-23T23:57:57.650Z,2.78
